OOCL Atlanta — VRAR6 — position and weather

sailwx.info

Track history (hours):
 
Tides and Currents Weather Stations Pressure Air Temp Water Temp Dewpoint Dewpoint Depression Visibility Wind Speed Wind Dir Waves Ship Positions

OOCL Atlanta

Last reported at 2015-May-23 19:18 UTC. Time now 2015-May-25 15:38 UTC.
Position N 34°20' E 129°59'.

Length 323 m; beam 42.8 m; draft 14.5 m.

Type: Cargo ship. MMSI: 477920300.

Date/timePositionNaut miles runAvg speedWind from/ knotsBaromVisibWave heightAir tempDewpointWater temp
2015-May-23 19:18N 34°20' E 129°59'2321.9
2015-May-23 18:15N 34°04' E 129°39'1721.6
2015-May-23 17:29N 33°53' E 129°24'2121.1
2015-May-23 16:30N 33°39' E 129°06'89520.6
2015-May-21 21:05N 23°01' E 117°11'1518.4
2015-May-21 20:16N 22°52' E 116°58'13517.4
2015-May-21 12:32N 22°23' E 114°36'2116.1
2015-May-21 11:12N 22°34' E 114°16'0 0.0
2015-May-20 21:25N 22°34' E 114°16'1910.0
2015-May-20 19:33N 22°19' E 114°27'1615.8
2015-May-20 18:33N 22°08' E 114°15'1312.8
2015-May-20 17:34N 22°17' E 114°06'4 3.5
2015-May-20 16:31N 22°21' E 114°07'0 0.0
2015-May-20 15:31N 22°21' E 114°07'0 0.0
2015-May-20 14:31N 22°21' E 114°07'0 0.0
2015-May-20 12:25N 22°21' E 114°07'0 0.0
2015-May-20 09:16N 22°21' E 114°07'0 0.0
2015-May-20 08:25N 22°21' E 114°07'0 0.0
2015-May-20 07:31N 22°21' E 114°07'0 0.0
2015-May-20 06:25N 22°21' E 114°07'0 0.0
2015-May-20 05:28N 22°21' E 114°07'0 0.0
2015-May-20 04:28N 22°21' E 114°07'0 0.0
2015-May-20 03:31N 22°21' E 114°07'0 0.0
2015-May-20 02:25N 22°21' E 114°07'0 0.0
2015-May-20 01:31N 22°21' E 114°07'0 0.0
2015-May-20 00:25N 22°21' E 114°07'0 0.0
2015-May-19 23:28N 22°21' E 114°07'0 0.0
2015-May-19 22:31N 22°21' E 114°07'0 0.0
2015-May-19 21:28N 22°21' E 114°07'0 0.0
2015-May-19 20:28N 22°21' E 114°07'0 0.0
2015-May-19 19:31N 22°21' E 114°07'0 0.0
2015-May-19 18:31N 22°21' E 114°07'2 2.4
2015-May-19 17:34N 22°20' E 114°05'1211.5
2015-May-19 16:33N 22°24' E 113°53'5 0.3
2015-May-19 03:19N 22°29' E 113°52'7 9.5
2015-May-19 02:32N 22°22' E 113°55'1010.7
2015-May-19 01:33N 22°19' E 114°06'9 9.3
2015-May-19 00:32N 22°11' E 114°12'1010.6
2015-May-18 23:33N 22°07' E 114°23'1211.9
2015-May-18 22:33N 21°55' E 114°21'  
Track history (hours):
 
Tides and Currents Weather Stations Pressure Air Temp Water Temp Dewpoint Dewpoint Depression Visibility Wind Speed Wind Dir Waves Ship Positions

OOCL Atlanta

Last reported at 2015-May-23 19:18 UTC. Time now 2015-May-25 15:38 UTC.
Position N 34°20' E 129°59'.

Length 323 m; beam 42.8 m; draft 14.5 m.

Type: Cargo ship. MMSI: 477920300.

Date/timePositionNaut miles runAvg speedWind from/ knotsBaromVisibWave heightAir tempDewpointWater temp
2015-May-23 19:18N 34°20' E 129°59'2321.9
2015-May-23 18:15N 34°04' E 129°39'1721.6
2015-May-23 17:29N 33°53' E 129°24'2121.1
2015-May-23 16:30N 33°39' E 129°06'89520.6
2015-May-21 21:05N 23°01' E 117°11'1518.4
2015-May-21 20:16N 22°52' E 116°58'13517.4
2015-May-21 12:32N 22°23' E 114°36'2116.1
2015-May-21 11:12N 22°34' E 114°16'0 0.0
2015-May-20 21:25N 22°34' E 114°16'1910.0
2015-May-20 19:33N 22°19' E 114°27'1615.8
2015-May-20 18:33N 22°08' E 114°15'1312.8
2015-May-20 17:34N 22°17' E 114°06'4 3.5
2015-May-20 16:31N 22°21' E 114°07'0 0.0
2015-May-20 15:31N 22°21' E 114°07'0 0.0
2015-May-20 14:31N 22°21' E 114°07'0 0.0
2015-May-20 12:25N 22°21' E 114°07'0 0.0
2015-May-20 09:16N 22°21' E 114°07'0 0.0
2015-May-20 08:25N 22°21' E 114°07'0 0.0
2015-May-20 07:31N 22°21' E 114°07'0 0.0
2015-May-20 06:25N 22°21' E 114°07'0 0.0
2015-May-20 05:28N 22°21' E 114°07'0 0.0
2015-May-20 04:28N 22°21' E 114°07'0 0.0
2015-May-20 03:31N 22°21' E 114°07'0 0.0
2015-May-20 02:25N 22°21' E 114°07'0 0.0
2015-May-20 01:31N 22°21' E 114°07'0 0.0
2015-May-20 00:25N 22°21' E 114°07'0 0.0
2015-May-19 23:28N 22°21' E 114°07'0 0.0
2015-May-19 22:31N 22°21' E 114°07'0 0.0
2015-May-19 21:28N 22°21' E 114°07'0 0.0
2015-May-19 20:28N 22°21' E 114°07'0 0.0
2015-May-19 19:31N 22°21' E 114°07'0 0.0
2015-May-19 18:31N 22°21' E 114°07'2 2.4
2015-May-19 17:34N 22°20' E 114°05'1211.5
2015-May-19 16:33N 22°24' E 113°53'5 0.3
2015-May-19 03:19N 22°29' E 113°52'7 9.5
2015-May-19 02:32N 22°22' E 113°55'1010.7
2015-May-19 01:33N 22°19' E 114°06'9 9.3
2015-May-19 00:32N 22°11' E 114°12'1010.6
2015-May-18 23:33N 22°07' E 114°23'1211.9
2015-May-18 22:33N 21°55' E 114°21'  

Dump ship's entire track history